Thursday, April 24, 2014
03:59 UTC
  |  Log In   |  Register Free
Airport Search:

Lenawee County Airport
(KADG)

Lenawee County Airport Diagram
No Airport Diagram Available

FAA data valid effective April 3, 2014 until May 29, 2014 (unless otherwise noted).

 
 
 
 
 
 
 
 
 
 
 
 
 
 

Current Aviation Weather for Lenawee County Airport (KADG)

The most recent METAR observation for KADG was updated at: 0253 UTC
METAR Summary (Translated METAR)
KADG
240253Z AUTO 09008KT 10SM CLR 09/M08 A3012 RMK AO2 SLP207 T00891078 52014 TSNO
KDUH
(20.4 nm SE from KADG)
240255Z AUTO 12003KT 10SM CLR 08/01 A3013 RMK AO2
TAF Summary (Translated TAF)
KTOL
(20.7 nm SE from KADG)
231944Z 2320/2418 36008KT P6SM SKC FM240000 VRB03KT P6SM SKC FM241400 12008KT P6SM SCT100 BKN250
  Airport Weather Conditions for KADG

 Current Weather at ADG
48° F
Fair
East winds at 9.2 mph
ADG NOAA Radar

Pressure: 30.12 in
Humidity: 30%
Wind: East at 9.2 MPH (8 KT)
Dew Point: 18.0°F
Visibility: 10.00 mi


Airport Weather Forecast for KADG

Translated METAR and TAF for KADG
Translated METAR for KADG (0359 UTC 24 April 2014)
found at http://aviationweather.gov/adds/metars/
 
METAR text: KADG 240353Z AUTO 14005KT 10SM CLR 08/M01 A3012 RMK AO2 SLP205 T00781011 TSNO
Conditions at: KADG (ADRIAN , MI, US) observed 0353 UTC 24 April 2014
Temperature: 7.8°C (46°F)
Dewpoint: -1.1°C (30°F) [RH = 53%]
Pressure (altimeter): 30.12 inches Hg (1020.1 mb)
[Sea-level pressure: 1020.5 mb]
Winds: from the SE (140 degrees) at 6 MPH (5 knots; 2.6 m/s)
Visibility: 10 or more miles (16+ km)
Ceiling: at least 12,000 feet AGL
Clouds: sky clear below 12,000 feet AGL
Weather: automated observation with no human augmentation;
there may or may not be significant weather present at this time
Translated TAF for KADG

There is no translated TAF available for this airport

Find All Airport Services Find A Hotel Find A Rental Car Find A Golf Course Find A Restaurant $100 Hamburger



FBO's on the Field
FBO Company Facility Photos Services Transportation Aviation Fuel Prices: Prices include tax
Catering Weather Repair Courtesy Rental Type 100LL JetA JetA+ MOGAS 8087
 
Lenawee County Airport

This FBO has not yet been rated
FS:Avfuel
Last Updated: Apr-11
Login to update fuel prices
SS:
Contact Lenawee County AirportMore FBO Information
 
Add another FBO Facility Photos Catering Weather Repair Courtesy Rental Type 100LL JetA JetA+ MOGAS 8087
Services Transportation Aviation Fuel Prices: Prices include tax


GlobalAir.com Airport Resource Center model-print
model-print
model-print
model-print